createdAt,value
2019-01-29T00:01:05.427Z,99.90
2019-01-29T00:03:32.742Z,99.90
2019-01-29T00:06:00.585Z,99.90
2019-01-29T00:08:28.054Z,99.90
2019-01-29T00:10:55.925Z,99.90
2019-01-29T00:13:23.459Z,99.90
2019-01-29T00:16:09.714Z,99.90
2019-01-29T00:18:37.412Z,99.90
2019-01-29T00:21:04.984Z,99.90
2019-01-29T00:23:32.401Z,99.90
2019-01-29T00:25:59.723Z,99.90
2019-01-29T00:28:27.393Z,99.90
2019-01-29T00:30:55.021Z,99.90
2019-01-29T00:33:23.085Z,99.90
2019-01-29T00:35:50.911Z,99.90
2019-01-29T00:38:18.487Z,99.90
2019-01-29T00:40:45.814Z,99.90
2019-01-29T00:43:13.347Z,99.90
2019-01-29T00:45:40.699Z,99.90
2019-01-29T00:48:08.013Z,99.90
2019-01-29T00:50:35.383Z,99.90
2019-01-29T00:53:02.600Z,99.90
2019-01-29T00:55:31.225Z,99.90
2019-01-29T00:57:58.912Z,99.90
2019-01-29T01:00:26.573Z,99.90
2019-01-29T01:02:54.052Z,99.90
2019-01-29T01:05:21.389Z,99.90
2019-01-29T01:07:49.038Z,99.90
2019-01-29T01:10:18.199Z,99.90
2019-01-29T01:12:45.839Z,99.90
2019-01-29T01:15:13.298Z,99.90
2019-01-29T01:17:40.771Z,99.90
2019-01-29T01:20:10.665Z,99.90
2019-01-29T01:22:38.130Z,99.90
2019-01-29T01:25:05.912Z,99.90
2019-01-29T01:27:33.473Z,99.90
2019-01-29T01:30:01.378Z,99.90
2019-01-29T01:32:29.080Z,99.90
2019-01-29T01:34:56.800Z,99.90
2019-01-29T01:37:24.391Z,99.90
2019-01-29T01:39:51.747Z,99.90
2019-01-29T01:42:19.198Z,99.90
2019-01-29T01:44:46.552Z,99.90
2019-01-29T01:47:13.973Z,99.90
2019-01-29T01:49:41.318Z,99.90
2019-01-29T01:52:08.722Z,99.90
2019-01-29T01:54:36.057Z,99.90
2019-01-29T01:57:03.375Z,99.90
2019-01-29T01:59:35.201Z,99.90
2019-01-29T02:02:03.162Z,99.90
2019-01-29T02:04:34.992Z,99.90
2019-01-29T02:07:03.268Z,99.90
2019-01-29T02:09:31.315Z,99.90
2019-01-29T02:11:59.136Z,99.90
2019-01-29T02:14:26.710Z,99.90
2019-01-29T02:16:54.475Z,99.90
2019-01-29T02:19:21.797Z,99.90
2019-01-29T02:21:49.313Z,99.90
2019-01-29T02:24:16.887Z,99.90
2019-01-29T02:26:44.218Z,99.90
2019-01-29T02:29:11.498Z,99.90
2019-01-29T02:31:39.314Z,99.90
2019-01-29T02:34:07.366Z,99.90
2019-01-29T02:36:35.230Z,99.90
2019-01-29T02:39:06.272Z,99.90
2019-01-29T02:41:33.638Z,99.90
2019-01-29T02:44:00.946Z,99.90
2019-01-29T02:46:28.551Z,99.90
2019-01-29T02:48:56.403Z,99.90
2019-01-29T02:51:24.039Z,99.90
2019-01-29T02:53:51.658Z,99.90
2019-01-29T02:56:19.250Z,99.90
2019-01-29T02:58:46.707Z,99.90
2019-01-29T03:01:14.104Z,99.90
2019-01-29T03:03:41.618Z,99.90
2019-01-29T03:06:09.795Z,99.90
2019-01-29T03:08:36.969Z,99.90
2019-01-29T03:11:04.497Z,99.90
2019-01-29T03:13:32.034Z,99.90
2019-01-29T03:15:59.822Z,99.90
2019-01-29T03:18:27.224Z,99.90
2019-01-29T03:20:54.820Z,99.90
2019-01-29T03:23:27.740Z,99.90
2019-01-29T03:25:51.764Z,99.90
2019-01-29T03:28:19.382Z,99.90
2019-01-29T03:30:46.898Z,99.90
2019-01-29T03:33:14.464Z,99.90
2019-01-29T03:35:44.636Z,99.90
2019-01-29T03:38:11.975Z,99.90
2019-01-29T03:40:39.303Z,99.90
2019-01-29T03:43:06.710Z,99.90
2019-01-29T03:45:34.275Z,99.90
2019-01-29T03:48:01.714Z,99.90
2019-01-29T03:50:29.393Z,99.90
2019-01-29T03:52:56.955Z,99.90
2019-01-29T03:55:24.432Z,99.90
2019-01-29T03:57:51.798Z,99.90
2019-01-29T04:00:21.927Z,99.90
2019-01-29T04:02:49.482Z,99.90
2019-01-29T04:05:17.066Z,99.90
2019-01-29T04:07:44.643Z,99.90
2019-01-29T04:10:15.622Z,99.90
2019-01-29T04:12:43.358Z,99.90
2019-01-29T04:15:15.620Z,99.90
2019-01-29T04:17:43.145Z,99.90
2019-01-29T04:20:13.363Z,99.90
2019-01-29T04:22:41.442Z,99.90
2019-01-29T04:25:09.807Z,99.90
2019-01-29T04:27:37.430Z,99.90
2019-01-29T04:30:05.732Z,99.90
2019-01-29T04:32:33.402Z,99.90
2019-01-29T04:35:00.898Z,99.90
2019-01-29T04:37:31.496Z,99.90
2019-01-29T04:40:00.711Z,99.90
2019-01-29T04:42:28.644Z,99.90
2019-01-29T04:44:56.421Z,99.90
2019-01-29T04:47:23.891Z,99.90
2019-01-29T04:49:53.483Z,99.90
2019-01-29T04:52:20.656Z,99.90
2019-01-29T04:54:48.561Z,99.90
2019-01-29T04:57:16.331Z,99.90
2019-01-29T04:59:44.033Z,99.90
2019-01-29T05:02:11.595Z,99.90
2019-01-29T05:04:39.202Z,99.90
2019-01-29T05:07:07.072Z,99.90
2019-01-29T05:09:39.374Z,99.90
2019-01-29T05:12:06.680Z,99.90
2019-01-29T05:14:34.116Z,99.90
2019-01-29T05:17:01.658Z,99.90
2019-01-29T05:19:29.115Z,99.90
2019-01-29T05:21:56.903Z,99.90
2019-01-29T05:24:24.899Z,99.90
2019-01-29T05:26:52.468Z,99.90
2019-01-29T05:29:20.009Z,99.90
2019-01-29T05:31:47.299Z,99.90
2019-01-29T05:34:15.305Z,99.90
2019-01-29T05:36:42.924Z,99.90
2019-01-29T05:39:10.553Z,99.90
2019-01-29T05:41:38.126Z,99.90
2019-01-29T05:44:05.787Z,99.90
2019-01-29T05:46:33.551Z,99.90
2019-01-29T05:49:00.762Z,99.90
2019-01-29T05:51:29.069Z,99.90
2019-01-29T05:53:56.583Z,99.90
2019-01-29T05:56:24.769Z,99.90
2019-01-29T05:58:52.174Z,99.90
2019-01-29T06:01:19.761Z,99.90
2019-01-29T06:03:50.136Z,99.90
2019-01-29T06:06:17.753Z,99.90
2019-01-29T06:08:46.358Z,99.90
2019-01-29T06:11:14.337Z,99.90
2019-01-29T06:13:42.351Z,99.90
2019-01-29T06:16:10.143Z,99.90
2019-01-29T06:18:37.562Z,99.90
2019-01-29T06:21:05.134Z,99.90
2019-01-29T06:23:32.727Z,99.90
2019-01-29T06:25:59.948Z,99.90
2019-01-29T06:28:28.165Z,99.90
2019-01-29T06:30:56.119Z,99.90
2019-01-29T06:33:23.514Z,99.90
2019-01-29T06:35:53.972Z,99.90
2019-01-29T06:38:21.671Z,99.90
2019-01-29T06:40:49.390Z,99.90
2019-01-29T06:43:17.018Z,99.90
2019-01-29T06:45:44.383Z,99.90
2019-01-29T06:48:11.757Z,99.90
2019-01-29T06:50:39.318Z,99.90
2019-01-29T06:53:07.380Z,99.90
2019-01-29T06:55:34.945Z,99.90
2019-01-29T06:58:02.911Z,99.90
2019-01-29T07:00:31.110Z,99.90
2019-01-29T07:02:59.964Z,99.90
2019-01-29T07:05:27.649Z,99.90
2019-01-29T07:07:55.016Z,99.90
2019-01-29T07:10:22.803Z,99.90
2019-01-29T07:12:50.228Z,99.90
2019-01-29T07:15:37.673Z,99.90
2019-01-29T07:18:12.584Z,99.90
2019-01-29T07:20:40.164Z,99.90
2019-01-29T07:23:08.051Z,99.90
2019-01-29T07:25:35.786Z,99.90
2019-01-29T07:28:04.139Z,99.90
2019-01-29T07:30:32.308Z,99.90
2019-01-29T07:32:59.975Z,99.90
2019-01-29T07:35:28.052Z,99.90
2019-01-29T07:37:55.576Z,99.90
2019-01-29T07:40:22.983Z,99.90
2019-01-29T07:42:50.889Z,99.90
2019-01-29T07:45:19.005Z,99.90
2019-01-29T07:47:46.511Z,99.90
2019-01-29T07:50:14.462Z,99.90
2019-01-29T07:52:42.215Z,99.90
2019-01-29T07:55:10.301Z,99.90
2019-01-29T07:57:37.643Z,99.90
2019-01-29T08:00:06.578Z,99.90
2019-01-29T08:02:34.142Z,99.90
2019-01-29T08:05:01.712Z,99.90
2019-01-29T08:07:29.280Z,99.90
2019-01-29T08:09:57.114Z,99.90
2019-01-29T08:12:24.428Z,99.90
2019-01-29T08:14:52.026Z,99.90
2019-01-29T08:17:19.587Z,99.90
2019-01-29T08:19:47.144Z,99.90
2019-01-29T08:22:14.717Z,99.90
2019-01-29T08:24:42.533Z,99.90
2019-01-29T08:27:10.399Z,99.90
2019-01-29T08:29:37.995Z,99.90
2019-01-29T08:32:05.890Z,99.90
2019-01-29T08:34:33.456Z,99.90
2019-01-29T08:37:00.884Z,99.90
2019-01-29T08:39:28.322Z,99.90
2019-01-29T08:41:55.781Z,99.90
2019-01-29T08:44:23.749Z,99.90
2019-01-29T08:46:51.774Z,99.90
2019-01-29T08:49:19.166Z,99.90
2019-01-29T08:51:46.662Z,99.90
2019-01-29T08:54:14.414Z,99.90
2019-01-29T08:56:41.954Z,99.90
2019-01-29T08:59:09.995Z,99.90
2019-01-29T09:01:37.540Z,99.90
2019-01-29T09:04:04.914Z,99.90
2019-01-29T09:06:32.393Z,99.90
2019-01-29T09:09:00.176Z,99.90
2019-01-29T09:11:27.923Z,99.90
2019-01-29T09:13:55.343Z,99.90
2019-01-29T09:16:22.997Z,99.90
2019-01-29T09:18:50.624Z,99.90
2019-01-29T09:21:21.489Z,99.90
2019-01-29T09:23:49.151Z,99.90
2019-01-29T09:26:16.856Z,99.90
2019-01-29T09:28:44.827Z,99.90
2019-01-29T09:31:12.444Z,99.90
2019-01-29T09:33:40.647Z,99.90
2019-01-29T09:36:08.375Z,99.90
2019-01-29T09:38:36.317Z,99.90
2019-01-29T09:41:04.028Z,99.90
2019-01-29T09:43:31.598Z,99.90
2019-01-29T09:45:59.238Z,99.90
2019-01-29T09:48:26.795Z,99.90
2019-01-29T09:50:54.641Z,99.90
2019-01-29T09:53:22.318Z,99.90
2019-01-29T09:55:50.037Z,99.90
2019-01-29T09:58:17.681Z,99.90
2019-01-29T10:00:46.207Z,99.90
2019-01-29T10:03:14.919Z,99.90
2019-01-29T10:05:42.550Z,99.90
2019-01-29T10:08:10.726Z,99.90
2019-01-29T10:10:39.229Z,99.90
2019-01-29T10:13:06.856Z,99.90
2019-01-29T10:15:35.177Z,99.90
2019-01-29T10:18:03.148Z,99.90
2019-01-29T10:20:30.806Z,99.90
2019-01-29T10:23:01.342Z,99.90
2019-01-29T10:25:37.113Z,99.90
2019-01-29T10:27:58.180Z,99.90
2019-01-29T10:30:27.356Z,99.90
2019-01-29T10:32:55.039Z,99.90
2019-01-29T10:35:23.414Z,99.90
2019-01-29T10:37:51.008Z,99.90
2019-01-29T10:40:20.141Z,99.90
2019-01-29T10:42:47.912Z,99.90
2019-01-29T10:45:16.535Z,99.90
2019-01-29T10:47:44.284Z,99.60
2019-01-29T10:50:14.873Z,99.10
2019-01-29T10:52:42.491Z,98.80
2019-01-29T10:55:10.655Z,98.70
2019-01-29T10:57:38.203Z,98.70
2019-01-29T11:00:09.379Z,98.60
2019-01-29T11:02:36.982Z,98.50
2019-01-29T11:05:05.766Z,98.30
2019-01-29T11:07:33.225Z,98.20
2019-01-29T11:10:00.685Z,97.60
2019-01-29T11:12:28.553Z,97.60
2019-01-29T11:14:56.333Z,97.10
2019-01-29T11:17:23.970Z,96.60
2019-01-29T11:19:51.903Z,96.40
2019-01-29T11:22:19.679Z,96.20
2019-01-29T11:24:47.207Z,96.20
2019-01-29T11:27:15.413Z,96.20
2019-01-29T11:29:43.166Z,96.20
2019-01-29T11:32:10.992Z,95.90
2019-01-29T11:34:38.673Z,95.10
2019-01-29T11:37:06.230Z,95.10
2019-01-29T11:39:33.725Z,94.70
2019-01-29T11:42:01.443Z,94.40
2019-01-29T11:44:28.911Z,94.00
2019-01-29T11:46:56.470Z,93.90
2019-01-29T11:49:24.300Z,93.40
2019-01-29T11:51:52.613Z,93.30
2019-01-29T11:54:20.051Z,93.40
2019-01-29T11:56:47.712Z,93.50
2019-01-29T11:59:15.494Z,93.40
2019-01-29T12:01:43.854Z,93.50
2019-01-29T12:04:11.644Z,93.20
2019-01-29T12:06:39.062Z,93.10
2019-01-29T12:09:08.942Z,92.80
2019-01-29T12:11:36.672Z,92.70
2019-01-29T12:14:04.694Z,92.60
2019-01-29T12:16:32.183Z,92.50
2019-01-29T12:18:59.870Z,92.30
2019-01-29T12:21:27.339Z,92.30
2019-01-29T12:23:55.208Z,92.00
2019-01-29T12:26:22.926Z,91.90
2019-01-29T12:28:50.545Z,91.80
2019-01-29T12:31:18.487Z,91.80
2019-01-29T12:33:49.031Z,91.70
2019-01-29T12:36:16.732Z,91.40
2019-01-29T12:38:44.428Z,91.10
2019-01-29T12:41:12.633Z,90.60
2019-01-29T12:43:40.175Z,90.40
2019-01-29T12:46:07.760Z,90.30
2019-01-29T12:48:35.323Z,90.00
2019-01-29T12:51:07.087Z,89.20
2019-01-29T12:53:39.678Z,88.30
2019-01-29T12:56:07.290Z,87.80
2019-01-29T12:58:34.801Z,86.70
2019-01-29T13:01:02.822Z,86.20
2019-01-29T13:03:30.664Z,86.60
2019-01-29T13:05:58.276Z,86.90
2019-01-29T13:08:25.879Z,86.90
2019-01-29T13:10:53.409Z,86.80
2019-01-29T13:13:21.284Z,86.50
2019-01-29T13:15:48.842Z,86.80
2019-01-29T13:18:16.996Z,86.90
2019-01-29T13:20:45.325Z,87.00
2019-01-29T13:23:13.351Z,86.60
2019-01-29T13:25:41.066Z,86.00
2019-01-29T13:28:08.759Z,85.80
2019-01-29T13:30:36.414Z,85.50
2019-01-29T13:33:09.808Z,85.20
2019-01-29T13:35:37.687Z,85.20
2019-01-29T13:38:06.014Z,85.40
2019-01-29T13:40:33.477Z,85.70
2019-01-29T13:43:00.972Z,86.10
2019-01-29T13:45:28.416Z,86.10
2019-01-29T13:47:56.118Z,86.10
2019-01-29T13:50:33.542Z,86.10
2019-01-29T13:53:01.494Z,86.30
2019-01-29T13:55:29.225Z,86.60
2019-01-29T13:57:56.746Z,86.80
2019-01-29T14:00:29.463Z,86.80
2019-01-29T14:02:57.154Z,86.50
2019-01-29T14:05:24.820Z,85.60
2019-01-29T14:07:52.715Z,84.70
2019-01-29T14:10:20.274Z,84.80
2019-01-29T14:12:47.801Z,84.70
2019-01-29T14:15:25.812Z,84.60
2019-01-29T14:17:53.416Z,84.70
2019-01-29T14:20:22.861Z,84.90
2019-01-29T14:22:50.810Z,85.20
2019-01-29T14:25:18.570Z,85.20
2019-01-29T14:27:46.072Z,85.20
2019-01-29T14:30:16.414Z,85.20
2019-01-29T14:32:44.424Z,85.50
2019-01-29T14:35:12.543Z,85.30
2019-01-29T14:38:28.044Z,85.20
2019-01-29T14:40:56.047Z,85.20
2019-01-29T14:43:25.261Z,85.20
2019-01-29T14:45:52.947Z,85.40
2019-01-29T14:48:20.734Z,85.70
2019-01-29T14:50:49.476Z,86.00
2019-01-29T14:53:16.935Z,86.20
2019-01-29T14:55:49.129Z,86.50
2019-01-29T14:58:16.744Z,86.80
2019-01-29T15:00:44.645Z,86.80
2019-01-29T15:03:12.099Z,86.30
2019-01-29T15:05:39.862Z,86.50
2019-01-29T15:08:07.652Z,86.60
2019-01-29T15:10:35.328Z,86.90
2019-01-29T15:13:03.048Z,87.10
2019-01-29T15:15:32.308Z,86.50
2019-01-29T15:18:04.507Z,86.40
2019-01-29T15:20:32.038Z,86.30
2019-01-29T15:22:59.714Z,86.40
2019-01-29T15:25:27.649Z,86.50
2019-01-29T15:27:55.228Z,86.40
2019-01-29T15:30:24.968Z,86.40
2019-01-29T15:32:52.561Z,86.40
2019-01-29T15:35:19.953Z,86.30
2019-01-29T15:37:47.448Z,86.30
2019-01-29T15:40:16.219Z,86.30
2019-01-29T15:42:44.014Z,85.90
2019-01-29T15:45:14.346Z,85.90
2019-01-29T15:47:41.871Z,85.70
2019-01-29T15:50:11.352Z,85.70
2019-01-29T15:52:39.001Z,85.50
2019-01-29T15:55:08.948Z,85.30
2019-01-29T15:57:36.662Z,85.20
2019-01-29T16:00:08.467Z,85.20
2019-01-29T16:02:36.495Z,85.10
2019-01-29T16:05:05.989Z,84.90
2019-01-29T16:07:33.767Z,84.90
2019-01-29T16:10:01.588Z,85.40
2019-01-29T16:12:29.327Z,85.50
2019-01-29T16:14:57.217Z,85.80
2019-01-29T16:17:24.622Z,85.00
2019-01-29T16:19:52.798Z,84.90
2019-01-29T16:22:22.179Z,84.80
2019-01-29T16:24:49.955Z,84.40
2019-01-29T16:27:22.628Z,84.40
2019-01-29T16:29:47.143Z,84.20
2019-01-29T16:32:14.689Z,84.30
2019-01-29T16:34:42.501Z,84.40
2019-01-29T16:37:10.482Z,84.50
2019-01-29T16:39:39.101Z,84.50
2019-01-29T16:42:06.620Z,84.20
2019-01-29T16:44:35.051Z,84.20
2019-01-29T16:47:04.234Z,84.20
2019-01-29T16:49:31.811Z,84.30
2019-01-29T16:52:00.051Z,84.40
2019-01-29T16:54:28.216Z,84.40
2019-01-29T16:56:55.693Z,84.10
2019-01-29T16:59:23.287Z,84.50
2019-01-29T17:01:50.469Z,84.60
2019-01-29T17:04:21.185Z,84.60
2019-01-29T17:06:49.040Z,84.80
2019-01-29T17:09:16.576Z,84.90
2019-01-29T17:11:44.449Z,85.00
2019-01-29T17:14:11.924Z,84.90
2019-01-29T17:16:39.553Z,84.90
2019-01-29T17:19:06.963Z,85.00
2019-01-29T17:21:34.396Z,85.10
2019-01-29T17:24:01.841Z,85.00
2019-01-29T17:26:31.081Z,85.00
2019-01-29T17:28:58.583Z,85.20
2019-01-29T17:31:26.655Z,85.40
2019-01-29T17:33:54.004Z,85.50
2019-01-29T17:36:21.327Z,85.70
2019-01-29T17:38:49.361Z,85.70
2019-01-29T17:41:17.045Z,86.10
2019-01-29T17:43:44.689Z,86.40
2019-01-29T17:46:12.033Z,86.20
2019-01-29T17:48:39.831Z,85.90
2019-01-29T17:51:07.147Z,85.80
2019-01-29T17:53:37.083Z,85.80
2019-01-29T17:56:04.752Z,86.10
2019-01-29T17:58:32.863Z,86.00
2019-01-29T18:01:01.795Z,86.00
2019-01-29T18:03:29.325Z,86.00
2019-01-29T18:05:57.010Z,86.00
2019-01-29T18:08:25.575Z,86.10
2019-01-29T18:10:53.094Z,86.00
2019-01-29T18:13:21.020Z,86.10
2019-01-29T18:15:48.668Z,86.00
2019-01-29T18:18:16.216Z,86.00
2019-01-29T18:20:43.933Z,85.80
2019-01-29T18:23:11.299Z,86.10
2019-01-29T18:25:38.834Z,86.10
2019-01-29T18:28:08.567Z,86.20
2019-01-29T18:30:36.271Z,86.00
2019-01-29T18:33:03.736Z,86.10
2019-01-29T18:35:31.472Z,86.30
2019-01-29T18:37:58.855Z,86.40
2019-01-29T18:40:29.192Z,86.30
2019-01-29T18:42:56.603Z,87.00
2019-01-29T18:45:24.033Z,86.40
2019-01-29T18:47:52.105Z,86.50
2019-01-29T18:50:20.864Z,86.80
2019-01-29T18:52:48.827Z,86.70
2019-01-29T18:55:16.478Z,86.80
2019-01-29T18:57:44.168Z,86.90
2019-01-29T19:00:17.303Z,86.90
2019-01-29T19:02:44.842Z,87.10
2019-01-29T19:05:12.714Z,87.20
2019-01-29T19:07:40.592Z,87.30
2019-01-29T19:10:09.870Z,87.60
2019-01-29T19:12:37.302Z,87.80
2019-01-29T19:15:06.864Z,87.60
2019-01-29T19:17:34.415Z,87.60
2019-01-29T19:20:01.935Z,87.70
2019-01-29T19:22:29.949Z,87.80
2019-01-29T19:24:58.099Z,87.60
2019-01-29T19:27:25.926Z,87.80
2019-01-29T19:29:53.494Z,87.80
2019-01-29T19:32:21.231Z,87.80
2019-01-29T19:34:48.919Z,87.80
2019-01-29T19:37:16.550Z,88.00
2019-01-29T19:39:44.324Z,88.30
2019-01-29T19:42:12.198Z,88.20
2019-01-29T19:44:39.817Z,88.40
2019-01-29T19:47:07.223Z,88.60
2019-01-29T19:49:34.829Z,88.90
2019-01-29T19:52:02.509Z,89.10
2019-01-29T19:54:30.178Z,89.10
2019-01-29T19:56:58.867Z,89.20
2019-01-29T19:59:26.506Z,89.40
2019-01-29T20:01:54.279Z,89.40
2019-01-29T20:04:22.060Z,89.50
2019-01-29T20:06:50.038Z,89.40
2019-01-29T20:09:18.082Z,89.40
2019-01-29T20:11:46.472Z,89.40
2019-01-29T20:14:14.296Z,89.60
2019-01-29T20:16:42.127Z,89.70
2019-01-29T20:19:10.014Z,89.70
2019-01-29T20:21:38.058Z,89.60
2019-01-29T20:24:06.415Z,89.70
2019-01-29T20:26:34.547Z,89.80
2019-01-29T20:29:02.107Z,90.00
2019-01-29T20:31:29.724Z,89.90
2019-01-29T20:33:57.463Z,89.90
2019-01-29T20:36:25.236Z,90.00
2019-01-29T20:38:52.651Z,90.00
2019-01-29T20:41:20.724Z,90.00
2019-01-29T20:43:48.841Z,90.00
2019-01-29T20:46:17.239Z,90.10
2019-01-29T20:48:45.355Z,90.10
2019-01-29T20:51:13.359Z,90.20
2019-01-29T20:53:41.783Z,90.20
2019-01-29T20:56:09.760Z,90.20
2019-01-29T20:58:37.367Z,90.20
2019-01-29T21:01:05.656Z,90.30
2019-01-29T21:03:33.718Z,90.30
2019-01-29T21:06:01.493Z,90.30
2019-01-29T21:08:29.097Z,90.30
2019-01-29T21:10:56.827Z,90.30
2019-01-29T21:13:24.599Z,90.30
2019-01-29T21:15:52.233Z,90.20
2019-01-29T21:18:20.679Z,90.30
2019-01-29T21:20:56.850Z,90.30
2019-01-29T21:23:18.891Z,90.20
2019-01-29T21:25:46.784Z,90.10
2019-01-29T21:28:14.474Z,90.10
2019-01-29T21:30:44.060Z,90.40
2019-01-29T21:33:11.689Z,90.20
2019-01-29T21:35:39.302Z,90.20
2019-01-29T21:38:06.923Z,90.20
2019-01-29T21:40:34.598Z,90.50
2019-01-29T21:43:02.696Z,90.40
2019-01-29T21:45:30.215Z,90.30
2019-01-29T21:47:59.507Z,90.30
2019-01-29T21:50:28.394Z,90.20
2019-01-29T21:52:56.135Z,90.10
2019-01-29T21:55:24.022Z,90.10
2019-01-29T21:57:54.449Z,90.00
2019-01-29T22:00:31.566Z,89.80
2019-01-29T22:02:59.099Z,89.60
2019-01-29T22:05:26.438Z,89.60
2019-01-29T22:07:54.309Z,88.90
2019-01-29T22:10:21.692Z,88.70
2019-01-29T22:12:49.159Z,88.60
2019-01-29T22:15:16.914Z,88.30
2019-01-29T22:17:44.468Z,88.30
2019-01-29T22:20:14.606Z,88.30
2019-01-29T22:22:42.342Z,88.10
2019-01-29T22:25:12.546Z,87.90
2019-01-29T22:27:39.897Z,87.90
2019-01-29T22:30:12.103Z,88.20
2019-01-29T22:32:39.632Z,88.10
2019-01-29T22:35:07.125Z,87.80
2019-01-29T22:37:35.308Z,87.90
2019-01-29T22:40:04.370Z,87.50
2019-01-29T22:42:32.534Z,87.80
2019-01-29T22:45:00.401Z,87.60
2019-01-29T22:47:27.940Z,87.40
2019-01-29T22:49:55.961Z,87.50
2019-01-29T22:52:23.897Z,87.40
2019-01-29T22:54:51.354Z,88.10
2019-01-29T22:57:18.818Z,87.50
2019-01-29T22:59:46.458Z,87.50
2019-01-29T23:02:13.850Z,87.60
2019-01-29T23:04:44.323Z,87.70
2019-01-29T23:07:33.321Z,87.70
2019-01-29T23:10:02.002Z,87.80
2019-01-29T23:12:29.727Z,88.20
2019-01-29T23:14:57.146Z,88.30
2019-01-29T23:17:25.312Z,88.30
2019-01-29T23:19:53.321Z,88.80
2019-01-29T23:22:21.664Z,88.50
2019-01-29T23:24:49.949Z,88.60
2019-01-29T23:27:17.695Z,88.80
2019-01-29T23:29:45.274Z,88.70
2019-01-29T23:32:12.779Z,88.60
2019-01-29T23:34:40.242Z,88.70
2019-01-29T23:37:07.831Z,88.90
2019-01-29T23:39:35.323Z,89.10
2019-01-29T23:42:03.754Z,89.00
2019-01-29T23:44:31.638Z,89.20
2019-01-29T23:46:59.307Z,89.30
2019-01-29T23:49:26.968Z,89.40
2019-01-29T23:51:54.471Z,89.50
2019-01-29T23:54:21.847Z,89.50
2019-01-29T23:56:49.420Z,89.60
2019-01-29T23:59:17.584Z,89.50
